sensor_id;sensor_type;location;lat;lon;timestamp;temperature;humidity
19555;DHT22;9924;50.828;6.440;2023-02-28T00:00:07;0.50;99.90
19555;DHT22;9924;50.828;6.440;2023-02-28T00:02:54;0.50;99.90
19555;DHT22;9924;50.828;6.440;2023-02-28T00:05:39;0.50;99.90
19555;DHT22;9924;50.828;6.440;2023-02-28T00:08:23;0.50;99.90
19555;DHT22;9924;50.828;6.440;2023-02-28T00:11:12;0.50;99.90
19555;DHT22;9924;50.828;6.440;2023-02-28T00:13:57;0.40;99.90
19555;DHT22;9924;50.828;6.440;2023-02-28T00:16:42;0.50;99.90
19555;DHT22;9924;50.828;6.440;2023-02-28T00:19:27;0.40;99.90
19555;DHT22;9924;50.828;6.440;2023-02-28T00:22:11;0.40;99.90
19555;DHT22;9924;50.828;6.440;2023-02-28T00:24:56;0.40;99.90
19555;DHT22;9924;50.828;6.440;2023-02-28T00:27:40;0.40;99.90
19555;DHT22;9924;50.828;6.440;2023-02-28T00:30:25;0.30;99.90
19555;DHT22;9924;50.828;6.440;2023-02-28T00:33:09;0.30;99.90
19555;DHT22;9924;50.828;6.440;2023-02-28T00:36:05;0.30;99.90
19555;DHT22;9924;50.828;6.440;2023-02-28T00:38:50;0.30;99.90
19555;DHT22;9924;50.828;6.440;2023-02-28T00:41:34;0.30;99.90
19555;DHT22;9924;50.828;6.440;2023-02-28T00:44:18;0.20;99.90
19555;DHT22;9924;50.828;6.440;2023-02-28T00:47:05;0.20;99.90
19555;DHT22;9924;50.828;6.440;2023-02-28T00:49:50;0.10;99.90
19555;DHT22;9924;50.828;6.440;2023-02-28T00:52:34;0.10;99.90
19555;DHT22;9924;50.828;6.440;2023-02-28T00:55:18;0.00;99.90
19555;DHT22;9924;50.828;6.440;2023-02-28T00:58:03;0.00;99.90
19555;DHT22;9924;50.828;6.440;2023-02-28T01:00:47;0.00;99.90
19555;DHT22;9924;50.828;6.440;2023-02-28T01:03:32;-0.10;99.90
19555;DHT22;9924;50.828;6.440;2023-02-28T01:06:17;-0.10;99.90
19555;DHT22;9924;50.828;6.440;2023-02-28T01:09:02;-0.20;99.90
19555;DHT22;9924;50.828;6.440;2023-02-28T01:11:47;-0.20;99.90
19555;DHT22;9924;50.828;6.440;2023-02-28T01:14:32;-0.30;99.90
19555;DHT22;9924;50.828;6.440;2023-02-28T01:17:17;-0.30;99.90
19555;DHT22;9924;50.828;6.440;2023-02-28T01:20:01;-0.40;99.90
19555;DHT22;9924;50.828;6.440;2023-02-28T01:22:47;-0.40;99.90
19555;DHT22;9924;50.828;6.440;2023-02-28T01:25:34;-0.40;99.90
19555;DHT22;9924;50.828;6.440;2023-02-28T01:28:19;-0.50;99.90
19555;DHT22;9924;50.828;6.440;2023-02-28T01:31:04;-0.50;99.90
19555;DHT22;9924;50.828;6.440;2023-02-28T01:33:48;-0.50;99.90
19555;DHT22;9924;50.828;6.440;2023-02-28T01:36:32;-0.60;99.90
19555;DHT22;9924;50.828;6.440;2023-02-28T01:39:17;-0.60;99.90
19555;DHT22;9924;50.828;6.440;2023-02-28T01:42:02;-0.70;99.90
19555;DHT22;9924;50.828;6.440;2023-02-28T01:48:07;-0.80;99.90
19555;DHT22;9924;50.828;6.440;2023-02-28T01:50:53;-0.80;99.90
19555;DHT22;9924;50.828;6.440;2023-02-28T01:53:48;-0.80;99.90
19555;DHT22;9924;50.828;6.440;2023-02-28T01:56:35;-0.80;99.90
19555;DHT22;9924;50.828;6.440;2023-02-28T01:59:40;-0.80;99.90
19555;DHT22;9924;50.828;6.440;2023-02-28T02:02:30;-0.90;99.90
19555;DHT22;9924;50.828;6.440;2023-02-28T02:05:21;-0.90;99.90
19555;DHT22;9924;50.828;6.440;2023-02-28T02:08:08;-0.90;99.90
19555;DHT22;9924;50.828;6.440;2023-02-28T02:11:01;-0.90;99.90
19555;DHT22;9924;50.828;6.440;2023-02-28T02:41:53;-0.90;99.90
19555;DHT22;9924;50.828;6.440;2023-02-28T02:44:43;-0.90;99.90
19555;DHT22;9924;50.828;6.440;2023-02-28T02:47:31;-0.90;99.90
19555;DHT22;9924;50.828;6.440;2023-02-28T02:50:26;-0.90;99.90
19555;DHT22;9924;50.828;6.440;2023-02-28T02:53:13;-1.00;99.90
19555;DHT22;9924;50.828;6.440;2023-02-28T02:56:01;-1.00;99.90
19555;DHT22;9924;50.828;6.440;2023-02-28T02:58:49;-1.00;99.90
19555;DHT22;9924;50.828;6.440;2023-02-28T03:01:36;-1.00;99.90
19555;DHT22;9924;50.828;6.440;2023-02-28T03:04:23;-1.00;99.90
19555;DHT22;9924;50.828;6.440;2023-02-28T03:07:09;-1.00;99.90
19555;DHT22;9924;50.828;6.440;2023-02-28T03:09:55;-1.10;99.90
19555;DHT22;9924;50.828;6.440;2023-02-28T03:13:15;-1.00;99.90
19555;DHT22;9924;50.828;6.440;2023-02-28T03:28:39;-1.40;99.90
19555;DHT22;9924;50.828;6.440;2023-02-28T03:31:37;-1.40;99.90
19555;DHT22;9924;50.828;6.440;2023-02-28T03:34:29;-1.40;99.90
19555;DHT22;9924;50.828;6.440;2023-02-28T03:37:19;-1.40;99.90
19555;DHT22;9924;50.828;6.440;2023-02-28T03:40:08;-1.40;99.90
19555;DHT22;9924;50.828;6.440;2023-02-28T03:43:01;-1.40;99.90
19555;DHT22;9924;50.828;6.440;2023-02-28T03:45:49;-1.40;99.90
19555;DHT22;9924;50.828;6.440;2023-02-28T03:48:42;-1.50;99.90
19555;DHT22;9924;50.828;6.440;2023-02-28T03:51:28;-1.50;99.90
19555;DHT22;9924;50.828;6.440;2023-02-28T03:54:17;-1.50;99.90
19555;DHT22;9924;50.828;6.440;2023-02-28T03:57:12;-1.50;99.90
19555;DHT22;9924;50.828;6.440;2023-02-28T04:00:06;-1.50;99.90
19555;DHT22;9924;50.828;6.440;2023-02-28T04:02:51;-1.60;99.90
19555;DHT22;9924;50.828;6.440;2023-02-28T04:05:55;-1.70;99.90
19555;DHT22;9924;50.828;6.440;2023-02-28T04:08:41;-1.70;99.90
19555;DHT22;9924;50.828;6.440;2023-02-28T04:11:44;-1.60;99.90
19555;DHT22;9924;50.828;6.440;2023-02-28T04:14:28;-1.60;99.90
19555;DHT22;9924;50.828;6.440;2023-02-28T04:17:13;-1.50;99.90
19555;DHT22;9924;50.828;6.440;2023-02-28T04:19:58;-1.50;99.90
19555;DHT22;9924;50.828;6.440;2023-02-28T04:22:42;-1.50;99.90
19555;DHT22;9924;50.828;6.440;2023-02-28T04:25:27;-1.50;99.90
19555;DHT22;9924;50.828;6.440;2023-02-28T04:28:11;-1.50;99.90
19555;DHT22;9924;50.828;6.440;2023-02-28T04:31:01;-1.50;99.90
19555;DHT22;9924;50.828;6.440;2023-02-28T04:33:46;-1.40;99.90
19555;DHT22;9924;50.828;6.440;2023-02-28T04:36:30;-1.40;99.90
19555;DHT22;9924;50.828;6.440;2023-02-28T04:39:16;-1.40;99.90
19555;DHT22;9924;50.828;6.440;2023-02-28T04:42:03;-1.40;99.90
19555;DHT22;9924;50.828;6.440;2023-02-28T04:44:47;-1.40;99.90
19555;DHT22;9924;50.828;6.440;2023-02-28T04:47:32;-1.50;99.90
19555;DHT22;9924;50.828;6.440;2023-02-28T04:50:16;-1.50;99.90
19555;DHT22;9924;50.828;6.440;2023-02-28T04:53:01;-1.50;99.90
19555;DHT22;9924;50.828;6.440;2023-02-28T04:55:45;-1.50;99.90
19555;DHT22;9924;50.828;6.440;2023-02-28T04:58:30;-1.50;99.90
19555;DHT22;9924;50.828;6.440;2023-02-28T05:04:06;-1.50;99.90
19555;DHT22;9924;50.828;6.440;2023-02-28T05:06:51;-1.60;99.90
19555;DHT22;9924;50.828;6.440;2023-02-28T05:09:35;-1.70;99.90
19555;DHT22;9924;50.828;6.440;2023-02-28T05:12:19;-1.90;99.90
19555;DHT22;9924;50.828;6.440;2023-02-28T05:15:04;-2.00;99.90
19555;DHT22;9924;50.828;6.440;2023-02-28T05:17:49;-2.00;99.90
19555;DHT22;9924;50.828;6.440;2023-02-28T05:20:33;-2.10;99.90
19555;DHT22;9924;50.828;6.440;2023-02-28T05:23:19;-2.10;99.90
19555;DHT22;9924;50.828;6.440;2023-02-28T05:26:08;-2.00;99.90
19555;DHT22;9924;50.828;6.440;2023-02-28T05:28:52;-1.90;99.90
19555;DHT22;9924;50.828;6.440;2023-02-28T05:31:37;-1.90;99.90
19555;DHT22;9924;50.828;6.440;2023-02-28T05:34:21;-2.00;99.90
19555;DHT22;9924;50.828;6.440;2023-02-28T05:37:08;-2.10;99.90
19555;DHT22;9924;50.828;6.440;2023-02-28T05:39:55;-2.10;99.90
19555;DHT22;9924;50.828;6.440;2023-02-28T05:42:39;-2.20;99.90
19555;DHT22;9924;50.828;6.440;2023-02-28T05:45:24;-2.20;99.90
19555;DHT22;9924;50.828;6.440;2023-02-28T05:48:08;-2.20;99.90
19555;DHT22;9924;50.828;6.440;2023-02-28T05:50:53;-2.10;99.90
19555;DHT22;9924;50.828;6.440;2023-02-28T05:53:37;-2.10;99.90
19555;DHT22;9924;50.828;6.440;2023-02-28T05:56:21;-2.00;99.90
19555;DHT22;9924;50.828;6.440;2023-02-28T05:59:06;-2.00;99.90
19555;DHT22;9924;50.828;6.440;2023-02-28T06:01:50;-2.00;99.90
19555;DHT22;9924;50.828;6.440;2023-02-28T06:04:37;-2.00;99.90
19555;DHT22;9924;50.828;6.440;2023-02-28T06:07:21;-1.90;99.90
19555;DHT22;9924;50.828;6.440;2023-02-28T06:10:06;-2.00;99.90
19555;DHT22;9924;50.828;6.440;2023-02-28T06:12:51;-2.00;99.90
19555;DHT22;9924;50.828;6.440;2023-02-28T06:15:35;-2.20;99.90
19555;DHT22;9924;50.828;6.440;2023-02-28T06:18:19;-2.30;99.90
19555;DHT22;9924;50.828;6.440;2023-02-28T06:21:04;-2.40;99.90
19555;DHT22;9924;50.828;6.440;2023-02-28T06:23:48;-2.50;99.90
19555;DHT22;9924;50.828;6.440;2023-02-28T06:26:33;-2.50;99.90
19555;DHT22;9924;50.828;6.440;2023-02-28T06:29:18;-2.60;99.90
19555;DHT22;9924;50.828;6.440;2023-02-28T06:32:02;-2.60;99.90
19555;DHT22;9924;50.828;6.440;2023-02-28T06:34:46;-2.60;99.90
19555;DHT22;9924;50.828;6.440;2023-02-28T06:37:32;-2.70;99.90
19555;DHT22;9924;50.828;6.440;2023-02-28T06:40:16;-2.70;99.90
19555;DHT22;9924;50.828;6.440;2023-02-28T06:43:01;-2.80;99.90
19555;DHT22;9924;50.828;6.440;2023-02-28T06:45:46;-2.70;99.90
19555;DHT22;9924;50.828;6.440;2023-02-28T06:48:30;-2.80;99.90
19555;DHT22;9924;50.828;6.440;2023-02-28T06:51:18;-2.80;99.90
19555;DHT22;9924;50.828;6.440;2023-02-28T06:54:04;-2.80;99.90
19555;DHT22;9924;50.828;6.440;2023-02-28T06:56:49;-2.60;99.90
19555;DHT22;9924;50.828;6.440;2023-02-28T06:59:33;-2.50;99.90
19555;DHT22;9924;50.828;6.440;2023-02-28T07:02:19;-1.80;99.90
19555;DHT22;9924;50.828;6.440;2023-02-28T07:05:06;-0.80;99.90
19555;DHT22;9924;50.828;6.440;2023-02-28T07:07:52;0.20;99.90
19555;DHT22;9924;50.828;6.440;2023-02-28T07:10:40;1.10;99.90
19555;DHT22;9924;50.828;6.440;2023-02-28T07:13:24;1.50;99.90
19555;DHT22;9924;50.828;6.440;2023-02-28T07:16:11;2.00;99.90
19555;DHT22;9924;50.828;6.440;2023-02-28T07:18:57;3.00;99.90
19555;DHT22;9924;50.828;6.440;2023-02-28T07:21:41;4.00;99.90
19555;DHT22;9924;50.828;6.440;2023-02-28T07:24:25;4.30;99.90
19555;DHT22;9924;50.828;6.440;2023-02-28T07:27:12;4.40;99.90
19555;DHT22;9924;50.828;6.440;2023-02-28T07:29:56;4.00;99.90
19555;DHT22;9924;50.828;6.440;2023-02-28T07:32:41;3.80;99.90
19555;DHT22;9924;50.828;6.440;2023-02-28T07:35:25;4.10;99.90
19555;DHT22;9924;50.828;6.440;2023-02-28T07:38:10;4.00;99.90
19555;DHT22;9924;50.828;6.440;2023-02-28T07:40:55;4.00;99.90
19555;DHT22;9924;50.828;6.440;2023-02-28T07:43:40;4.30;99.90
19555;DHT22;9924;50.828;6.440;2023-02-28T07:46:24;4.30;99.90
19555;DHT22;9924;50.828;6.440;2023-02-28T07:49:09;4.30;99.90
19555;DHT22;9924;50.828;6.440;2023-02-28T07:51:53;4.60;99.90
19555;DHT22;9924;50.828;6.440;2023-02-28T07:54:38;4.70;99.90
19555;DHT22;9924;50.828;6.440;2023-02-28T07:57:23;4.30;99.90
19555;DHT22;9924;50.828;6.440;2023-02-28T08:00:09;4.30;99.90
19555;DHT22;9924;50.828;6.440;2023-02-28T08:02:54;4.80;99.90
19555;DHT22;9924;50.828;6.440;2023-02-28T08:05:39;5.00;99.90
19555;DHT22;9924;50.828;6.440;2023-02-28T08:08:24;4.90;99.90
19555;DHT22;9924;50.828;6.440;2023-02-28T08:11:16;4.30;99.90
19555;DHT22;9924;50.828;6.440;2023-02-28T08:14:00;3.90;99.90
19555;DHT22;9924;50.828;6.440;2023-02-28T08:16:44;3.50;99.90
19555;DHT22;9924;50.828;6.440;2023-02-28T08:19:29;3.20;99.90
19555;DHT22;9924;50.828;6.440;2023-02-28T08:22:13;3.30;99.90
19555;DHT22;9924;50.828;6.440;2023-02-28T08:24:59;3.40;99.90
19555;DHT22;9924;50.828;6.440;2023-02-28T08:27:44;3.40;99.90
19555;DHT22;9924;50.828;6.440;2023-02-28T08:30:29;3.20;99.90
19555;DHT22;9924;50.828;6.440;2023-02-28T08:33:12;2.90;99.90
19555;DHT22;9924;50.828;6.440;2023-02-28T08:35:57;2.70;99.90
19555;DHT22;9924;50.828;6.440;2023-02-28T08:38:42;2.50;99.90
19555;DHT22;9924;50.828;6.440;2023-02-28T08:41:27;2.40;99.90
19555;DHT22;9924;50.828;6.440;2023-02-28T08:44:11;2.40;99.90
19555;DHT22;9924;50.828;6.440;2023-02-28T08:46:56;2.50;99.90
19555;DHT22;9924;50.828;6.440;2023-02-28T08:49:40;2.50;99.90
19555;DHT22;9924;50.828;6.440;2023-02-28T08:52:25;2.70;99.90
19555;DHT22;9924;50.828;6.440;2023-02-28T08:55:09;2.70;99.90
19555;DHT22;9924;50.828;6.440;2023-02-28T08:57:54;2.60;99.90
19555;DHT22;9924;50.828;6.440;2023-02-28T09:00:39;2.50;99.90
19555;DHT22;9924;50.828;6.440;2023-02-28T09:03:23;2.50;99.90
19555;DHT22;9924;50.828;6.440;2023-02-28T09:06:09;2.40;99.90
19555;DHT22;9924;50.828;6.440;2023-02-28T09:08:56;2.40;99.90
19555;DHT22;9924;50.828;6.440;2023-02-28T09:11:42;2.50;99.90
19555;DHT22;9924;50.828;6.440;2023-02-28T09:14:27;2.70;99.90
19555;DHT22;9924;50.828;6.440;2023-02-28T09:17:11;2.70;99.90
19555;DHT22;9924;50.828;6.440;2023-02-28T09:19:56;2.80;99.90
19555;DHT22;9924;50.828;6.440;2023-02-28T09:22:41;2.80;99.90
19555;DHT22;9924;50.828;6.440;2023-02-28T09:25:26;2.90;99.90
19555;DHT22;9924;50.828;6.440;2023-02-28T09:28:10;2.90;99.90
19555;DHT22;9924;50.828;6.440;2023-02-28T09:30:55;3.00;99.90
19555;DHT22;9924;50.828;6.440;2023-02-28T09:33:41;3.10;99.90
19555;DHT22;9924;50.828;6.440;2023-02-28T09:36:26;3.20;99.90
19555;DHT22;9924;50.828;6.440;2023-02-28T09:39:12;3.40;99.90
19555;DHT22;9924;50.828;6.440;2023-02-28T09:42:01;3.80;99.90
19555;DHT22;9924;50.828;6.440;2023-02-28T09:44:47;3.90;99.90
19555;DHT22;9924;50.828;6.440;2023-02-28T09:47:36;4.00;99.90
19555;DHT22;9924;50.828;6.440;2023-02-28T09:50:55;4.20;99.90
19555;DHT22;9924;50.828;6.440;2023-02-28T09:53:43;4.50;99.90
19555;DHT22;9924;50.828;6.440;2023-02-28T09:56:50;4.70;99.90
19555;DHT22;9924;50.828;6.440;2023-02-28T10:05:50;5.50;99.90
19555;DHT22;9924;50.828;6.440;2023-02-28T10:08:51;5.70;99.90
19555;DHT22;9924;50.828;6.440;2023-02-28T10:11:37;6.10;99.90
19555;DHT22;9924;50.828;6.440;2023-02-28T10:14:24;6.40;99.40
19555;DHT22;9924;50.828;6.440;2023-02-28T10:17:37;6.40;98.50
19555;DHT22;9924;50.828;6.440;2023-02-28T10:20:24;6.20;98.10
19555;DHT22;9924;50.828;6.440;2023-02-28T10:26:12;6.30;98.00
19555;DHT22;9924;50.828;6.440;2023-02-28T10:28:57;6.30;97.60
19555;DHT22;9924;50.828;6.440;2023-02-28T10:31:41;6.50;97.90
19555;DHT22;9924;50.828;6.440;2023-02-28T10:34:26;6.50;97.70
19555;DHT22;9924;50.828;6.440;2023-02-28T10:37:13;6.60;96.70
19555;DHT22;9924;50.828;6.440;2023-02-28T10:39:58;6.60;96.40
19555;DHT22;9924;50.828;6.440;2023-02-28T10:43:04;6.60;97.10
19555;DHT22;9924;50.828;6.440;2023-02-28T10:45:57;7.00;96.60
19555;DHT22;9924;50.828;6.440;2023-02-28T10:48:50;7.30;96.30
19555;DHT22;9924;50.828;6.440;2023-02-28T10:51:41;6.40;95.90
19555;DHT22;9924;50.828;6.440;2023-02-28T10:54:36;6.40;97.00
19555;DHT22;9924;50.828;6.440;2023-02-28T10:57:23;6.90;96.40
19555;DHT22;9924;50.828;6.440;2023-02-28T11:00:21;7.30;97.00
19555;DHT22;9924;50.828;6.440;2023-02-28T11:03:32;7.70;95.60
19555;DHT22;9924;50.828;6.440;2023-02-28T11:06:21;8.20;94.30
19555;DHT22;9924;50.828;6.440;2023-02-28T11:09:39;7.90;95.50
19555;DHT22;9924;50.828;6.440;2023-02-28T11:21:04;8.70;94.10
19555;DHT22;9924;50.828;6.440;2023-02-28T11:23:54;8.70;93.60
19555;DHT22;9924;50.828;6.440;2023-02-28T11:29:30;8.90;93.10
19555;DHT22;9924;50.828;6.440;2023-02-28T11:32:20;9.00;93.80
19555;DHT22;9924;50.828;6.440;2023-02-28T11:37:55;9.40;92.70
19555;DHT22;9924;50.828;6.440;2023-02-28T11:40:45;9.00;91.80
19555;DHT22;9924;50.828;6.440;2023-02-28T11:46:46;8.90;93.10
19555;DHT22;9924;50.828;6.440;2023-02-28T11:53:22;9.00;93.20
19555;DHT22;9924;50.828;6.440;2023-02-28T11:56:10;9.20;92.20
19555;DHT22;9924;50.828;6.440;2023-02-28T12:05:25;9.00;91.30
19555;DHT22;9924;50.828;6.440;2023-02-28T12:08:32;9.40;91.70
19555;DHT22;9924;50.828;6.440;2023-02-28T12:20:38;10.40;90.40
19555;DHT22;9924;50.828;6.440;2023-02-28T12:23:42;10.00;89.50
19555;DHT22;9924;50.828;6.440;2023-02-28T12:26:37;9.20;90.60
19555;DHT22;9924;50.828;6.440;2023-02-28T12:29:32;8.20;91.70
19555;DHT22;9924;50.828;6.440;2023-02-28T12:32:30;8.60;92.90
19555;DHT22;9924;50.828;6.440;2023-02-28T12:35:21;9.30;92.00
19555;DHT22;9924;50.828;6.440;2023-02-28T12:38:17;10.10;91.90
19555;DHT22;9924;50.828;6.440;2023-02-28T12:44:14;8.40;90.90
19555;DHT22;9924;50.828;6.440;2023-02-28T12:47:09;8.70;92.20
19555;DHT22;9924;50.828;6.440;2023-02-28T12:50:13;9.60;91.40
19555;DHT22;9924;50.828;6.440;2023-02-28T12:53:06;10.20;90.20
19555;DHT22;9924;50.828;6.440;2023-02-28T12:56:19;10.50;88.90
19555;DHT22;9924;50.828;6.440;2023-02-28T12:59:27;10.30;90.00
19555;DHT22;9924;50.828;6.440;2023-02-28T13:05:55;10.30;89.60
19555;DHT22;9924;50.828;6.440;2023-02-28T13:11:54;10.60;89.80
19555;DHT22;9924;50.828;6.440;2023-02-28T13:14:40;11.00;90.20
19555;DHT22;9924;50.828;6.440;2023-02-28T13:17:24;10.40;90.10
19555;DHT22;9924;50.828;6.440;2023-02-28T13:20:37;9.80;90.10
19555;DHT22;9924;50.828;6.440;2023-02-28T13:23:40;10.00;90.20
19555;DHT22;9924;50.828;6.440;2023-02-28T13:29:30;9.70;90.20
19555;DHT22;9924;50.828;6.440;2023-02-28T13:32:29;9.60;91.60
19555;DHT22;9924;50.828;6.440;2023-02-28T13:35:16;10.10;90.50
19555;DHT22;9924;50.828;6.440;2023-02-28T13:38:30;10.60;90.40
19555;DHT22;9924;50.828;6.440;2023-02-28T13:44:20;11.50;87.50
19555;DHT22;9924;50.828;6.440;2023-02-28T13:47:20;11.00;86.60
19555;DHT22;9924;50.828;6.440;2023-02-28T13:50:35;10.60;89.10
19555;DHT22;9924;50.828;6.440;2023-02-28T13:53:38;10.40;88.60
19555;DHT22;9924;50.828;6.440;2023-02-28T13:56:32;10.50;89.00
19555;DHT22;9924;50.828;6.440;2023-02-28T14:02:36;11.40;86.80
19555;DHT22;9924;50.828;6.440;2023-02-28T14:05:22;11.30;86.30
19555;DHT22;9924;50.828;6.440;2023-02-28T14:08:18;11.20;87.30
19555;DHT22;9924;50.828;6.440;2023-02-28T14:11:08;11.30;89.50
19555;DHT22;9924;50.828;6.440;2023-02-28T14:13:53;11.40;85.50
19555;DHT22;9924;50.828;6.440;2023-02-28T14:16:47;11.50;83.50
19555;DHT22;9924;50.828;6.440;2023-02-28T14:19:35;11.40;83.70
19555;DHT22;9924;50.828;6.440;2023-02-28T14:22:46;10.60;84.30
19555;DHT22;9924;50.828;6.440;2023-02-28T14:25:42;10.40;86.30
19555;DHT22;9924;50.828;6.440;2023-02-28T14:28:48;10.30;86.10
19555;DHT22;9924;50.828;6.440;2023-02-28T14:31:38;10.40;85.10
19555;DHT22;9924;50.828;6.440;2023-02-28T14:34:43;10.00;87.30
19555;DHT22;9924;50.828;6.440;2023-02-28T14:37:33;9.90;87.10
19555;DHT22;9924;50.828;6.440;2023-02-28T14:40:25;9.90;88.40
19555;DHT22;9924;50.828;6.440;2023-02-28T14:43:25;9.90;89.20
19555;DHT22;9924;50.828;6.440;2023-02-28T14:46:12;9.70;88.40
19555;DHT22;9924;50.828;6.440;2023-02-28T14:48:57;9.30;89.30
19555;DHT22;9924;50.828;6.440;2023-02-28T14:51:42;8.80;90.70
19555;DHT22;9924;50.828;6.440;2023-02-28T14:54:27;8.50;90.90
19555;DHT22;9924;50.828;6.440;2023-02-28T15:00:15;8.10;91.50
19555;DHT22;9924;50.828;6.440;2023-02-28T15:03:11;7.90;91.20
19555;DHT22;9924;50.828;6.440;2023-02-28T15:06:16;7.80;92.00
19555;DHT22;9924;50.828;6.440;2023-02-28T15:09:15;8.20;92.10
19555;DHT22;9924;50.828;6.440;2023-02-28T15:12:00;8.30;91.90
19555;DHT22;9924;50.828;6.440;2023-02-28T15:14:45;8.30;91.40
19555;DHT22;9924;50.828;6.440;2023-02-28T15:17:31;8.60;91.30
19555;DHT22;9924;50.828;6.440;2023-02-28T15:20:16;8.70;91.40
19555;DHT22;9924;50.828;6.440;2023-02-28T15:23:02;8.90;90.90
19555;DHT22;9924;50.828;6.440;2023-02-28T15:25:47;8.90;90.60
19555;DHT22;9924;50.828;6.440;2023-02-28T15:28:32;8.70;90.50
19555;DHT22;9924;50.828;6.440;2023-02-28T15:31:23;8.50;91.10
19555;DHT22;9924;50.828;6.440;2023-02-28T15:34:19;8.50;90.90
19555;DHT22;9924;50.828;6.440;2023-02-28T15:37:39;8.40;91.60
19555;DHT22;9924;50.828;6.440;2023-02-28T15:40:36;8.00;91.20
19555;DHT22;9924;50.828;6.440;2023-02-28T15:43:28;7.70;91.80
19555;DHT22;9924;50.828;6.440;2023-02-28T15:46:13;7.30;92.50
19555;DHT22;9924;50.828;6.440;2023-02-28T15:48:59;7.30;93.30
19555;DHT22;9924;50.828;6.440;2023-02-28T15:51:45;7.40;92.50
19555;DHT22;9924;50.828;6.440;2023-02-28T15:54:33;7.80;92.40
19555;DHT22;9924;50.828;6.440;2023-02-28T15:57:29;7.80;91.90
19555;DHT22;9924;50.828;6.440;2023-02-28T16:00:20;7.80;92.00
19555;DHT22;9924;50.828;6.440;2023-02-28T16:03:27;7.70;92.70
19555;DHT22;9924;50.828;6.440;2023-02-28T16:06:40;7.80;91.90
19555;DHT22;9924;50.828;6.440;2023-02-28T16:09:28;7.60;91.90
19555;DHT22;9924;50.828;6.440;2023-02-28T16:12:14;7.50;92.50
19555;DHT22;9924;50.828;6.440;2023-02-28T16:15:03;7.50;92.50
19555;DHT22;9924;50.828;6.440;2023-02-28T16:17:50;7.10;92.60
19555;DHT22;9924;50.828;6.440;2023-02-28T16:20:34;6.80;92.90
19555;DHT22;9924;50.828;6.440;2023-02-28T16:23:19;6.50;93.50
19555;DHT22;9924;50.828;6.440;2023-02-28T16:26:04;6.30;94.30
19555;DHT22;9924;50.828;6.440;2023-02-28T16:28:49;6.20;94.60
19555;DHT22;9924;50.828;6.440;2023-02-28T16:31:37;6.00;95.00
19555;DHT22;9924;50.828;6.440;2023-02-28T16:34:22;5.90;94.90
19555;DHT22;9924;50.828;6.440;2023-02-28T16:37:14;5.80;95.70
19555;DHT22;9924;50.828;6.440;2023-02-28T16:39:59;5.70;95.60
19555;DHT22;9924;50.828;6.440;2023-02-28T16:42:45;5.60;96.20
19555;DHT22;9924;50.828;6.440;2023-02-28T16:45:30;5.60;96.80
19555;DHT22;9924;50.828;6.440;2023-02-28T16:48:16;5.50;96.70
19555;DHT22;9924;50.828;6.440;2023-02-28T16:51:00;5.40;97.30
19555;DHT22;9924;50.828;6.440;2023-02-28T16:53:46;5.30;97.00
19555;DHT22;9924;50.828;6.440;2023-02-28T16:56:30;5.30;97.30
19555;DHT22;9924;50.828;6.440;2023-02-28T16:59:18;5.20;97.50
19555;DHT22;9924;50.828;6.440;2023-02-28T17:02:19;5.10;98.20
19555;DHT22;9924;50.828;6.440;2023-02-28T17:05:04;5.00;98.30
19555;DHT22;9924;50.828;6.440;2023-02-28T17:07:49;4.90;98.60
19555;DHT22;9924;50.828;6.440;2023-02-28T17:10:34;4.80;99.50
19555;DHT22;9924;50.828;6.440;2023-02-28T17:13:19;4.70;99.70
19555;DHT22;9924;50.828;6.440;2023-02-28T17:16:03;4.60;99.90
19555;DHT22;9924;50.828;6.440;2023-02-28T17:18:49;4.60;99.90
19555;DHT22;9924;50.828;6.440;2023-02-28T17:21:33;4.50;99.90
19555;DHT22;9924;50.828;6.440;2023-02-28T17:24:18;4.40;99.90
19555;DHT22;9924;50.828;6.440;2023-02-28T17:27:03;4.30;99.90
19555;DHT22;9924;50.828;6.440;2023-02-28T17:29:48;4.20;99.90
19555;DHT22;9924;50.828;6.440;2023-02-28T17:32:33;4.10;99.90
19555;DHT22;9924;50.828;6.440;2023-02-28T17:35:17;4.00;99.90
19555;DHT22;9924;50.828;6.440;2023-02-28T17:38:01;3.80;99.90
19555;DHT22;9924;50.828;6.440;2023-02-28T17:40:46;3.70;99.90
19555;DHT22;9924;50.828;6.440;2023-02-28T17:43:30;3.60;99.90
19555;DHT22;9924;50.828;6.440;2023-02-28T17:46:19;3.50;99.90
19555;DHT22;9924;50.828;6.440;2023-02-28T17:49:05;3.40;99.90
19555;DHT22;9924;50.828;6.440;2023-02-28T17:51:49;3.30;99.90
19555;DHT22;9924;50.828;6.440;2023-02-28T17:54:34;3.20;99.90
19555;DHT22;9924;50.828;6.440;2023-02-28T17:57:19;3.20;99.90
19555;DHT22;9924;50.828;6.440;2023-02-28T18:00:05;3.10;99.90
19555;DHT22;9924;50.828;6.440;2023-02-28T18:02:50;3.10;99.90
19555;DHT22;9924;50.828;6.440;2023-02-28T18:05:35;3.00;99.90
19555;DHT22;9924;50.828;6.440;2023-02-28T18:08:20;3.00;99.90
19555;DHT22;9924;50.828;6.440;2023-02-28T18:11:06;3.10;99.90
19555;DHT22;9924;50.828;6.440;2023-02-28T18:13:57;3.00;99.90
19555;DHT22;9924;50.828;6.440;2023-02-28T18:16:43;3.00;99.90
19555;DHT22;9924;50.828;6.440;2023-02-28T18:19:28;3.00;99.90
19555;DHT22;9924;50.828;6.440;2023-02-28T18:22:12;2.90;99.90
19555;DHT22;9924;50.828;6.440;2023-02-28T18:24:58;2.80;99.90
19555;DHT22;9924;50.828;6.440;2023-02-28T18:27:43;2.80;99.90
19555;DHT22;9924;50.828;6.440;2023-02-28T18:30:37;2.80;99.90
19555;DHT22;9924;50.828;6.440;2023-02-28T18:33:21;2.70;99.90
19555;DHT22;9924;50.828;6.440;2023-02-28T18:36:06;2.60;99.90
19555;DHT22;9924;50.828;6.440;2023-02-28T18:38:51;2.60;99.90
19555;DHT22;9924;50.828;6.440;2023-02-28T18:41:38;2.50;99.90
19555;DHT22;9924;50.828;6.440;2023-02-28T18:44:22;2.30;99.90
19555;DHT22;9924;50.828;6.440;2023-02-28T18:47:07;2.20;99.90
19555;DHT22;9924;50.828;6.440;2023-02-28T18:49:52;2.30;99.90
19555;DHT22;9924;50.828;6.440;2023-02-28T18:52:38;2.30;99.90
19555;DHT22;9924;50.828;6.440;2023-02-28T18:55:22;2.30;99.90
19555;DHT22;9924;50.828;6.440;2023-02-28T18:58:07;2.20;99.90
19555;DHT22;9924;50.828;6.440;2023-02-28T19:00:51;2.20;99.90
19555;DHT22;9924;50.828;6.440;2023-02-28T19:03:35;2.10;99.90
19555;DHT22;9924;50.828;6.440;2023-02-28T19:06:21;2.10;99.90
19555;DHT22;9924;50.828;6.440;2023-02-28T19:09:06;2.20;99.90
19555;DHT22;9924;50.828;6.440;2023-02-28T19:11:50;2.10;99.90
19555;DHT22;9924;50.828;6.440;2023-02-28T19:14:36;2.10;99.90
19555;DHT22;9924;50.828;6.440;2023-02-28T19:17:22;2.10;99.90
19555;DHT22;9924;50.828;6.440;2023-02-28T19:20:07;2.10;99.90
19555;DHT22;9924;50.828;6.440;2023-02-28T19:22:54;2.10;99.90
19555;DHT22;9924;50.828;6.440;2023-02-28T19:25:41;2.10;99.90
19555;DHT22;9924;50.828;6.440;2023-02-28T19:28:29;2.10;99.90
19555;DHT22;9924;50.828;6.440;2023-02-28T19:31:16;2.10;99.90
19555;DHT22;9924;50.828;6.440;2023-02-28T19:34:01;2.10;99.90
19555;DHT22;9924;50.828;6.440;2023-02-28T19:36:45;2.10;99.90
19555;DHT22;9924;50.828;6.440;2023-02-28T19:39:29;2.10;99.90
19555;DHT22;9924;50.828;6.440;2023-02-28T19:42:24;2.00;99.90
19555;DHT22;9924;50.828;6.440;2023-02-28T19:45:11;2.00;99.90
19555;DHT22;9924;50.828;6.440;2023-02-28T19:47:57;2.00;99.90
19555;DHT22;9924;50.828;6.440;2023-02-28T19:50:42;2.00;99.90
19555;DHT22;9924;50.828;6.440;2023-02-28T19:53:29;2.00;99.90
19555;DHT22;9924;50.828;6.440;2023-02-28T19:56:14;2.00;99.90
19555;DHT22;9924;50.828;6.440;2023-02-28T19:58:59;2.00;99.90
19555;DHT22;9924;50.828;6.440;2023-02-28T20:01:43;1.90;99.90
19555;DHT22;9924;50.828;6.440;2023-02-28T20:04:28;1.90;99.90